sensor_id;sensor_type;location;lat;lon;timestamp;temperature;humidity
76120;DHT22;64852;48.092;-1.640;2023-05-01T00:00:23;15.20;99.90
76120;DHT22;64852;48.092;-1.640;2023-05-01T00:02:49;15.20;99.90
76120;DHT22;64852;48.092;-1.640;2023-05-01T00:05:15;15.30;99.90
76120;DHT22;64852;48.092;-1.640;2023-05-01T00:07:40;15.10;99.90
76120;DHT22;64852;48.092;-1.640;2023-05-01T00:10:06;15.20;99.90
76120;DHT22;64852;48.092;-1.640;2023-05-01T00:12:32;15.10;99.90
76120;DHT22;64852;48.092;-1.640;2023-05-01T00:14:57;15.10;99.90
76120;DHT22;64852;48.092;-1.640;2023-05-01T00:17:23;15.20;99.90
76120;DHT22;64852;48.092;-1.640;2023-05-01T00:19:52;15.20;99.90
76120;DHT22;64852;48.092;-1.640;2023-05-01T00:22:18;15.20;99.90
76120;DHT22;64852;48.092;-1.640;2023-05-01T00:24:43;15.00;99.90
76120;DHT22;64852;48.092;-1.640;2023-05-01T00:27:09;15.00;99.90
76120;DHT22;64852;48.092;-1.640;2023-05-01T00:29:35;15.10;99.90
76120;DHT22;64852;48.092;-1.640;2023-05-01T00:32:00;15.10;99.90
76120;DHT22;64852;48.092;-1.640;2023-05-01T00:34:26;15.10;99.90
76120;DHT22;64852;48.092;-1.640;2023-05-01T00:36:51;15.00;99.90
76120;DHT22;64852;48.092;-1.640;2023-05-01T00:39:17;15.10;99.90
76120;DHT22;64852;48.092;-1.640;2023-05-01T00:41:42;15.00;99.90
76120;DHT22;64852;48.092;-1.640;2023-05-01T00:44:08;15.10;99.90
76120;DHT22;64852;48.092;-1.640;2023-05-01T00:46:33;15.10;99.90
76120;DHT22;64852;48.092;-1.640;2023-05-01T00:48:59;15.10;99.90
76120;DHT22;64852;48.092;-1.640;2023-05-01T00:51:25;15.10;99.90
76120;DHT22;64852;48.092;-1.640;2023-05-01T00:53:53;15.20;99.90
76120;DHT22;64852;48.092;-1.640;2023-05-01T00:56:20;14.90;99.90
76120;DHT22;64852;48.092;-1.640;2023-05-01T00:58:46;15.00;99.90
76120;DHT22;64852;48.092;-1.640;2023-05-01T01:01:13;15.00;99.90
76120;DHT22;64852;48.092;-1.640;2023-05-01T01:03:40;14.90;99.90
76120;DHT22;64852;48.092;-1.640;2023-05-01T01:06:08;14.90;99.90
76120;DHT22;64852;48.092;-1.640;2023-05-01T01:08:39;15.00;99.90
76120;DHT22;64852;48.092;-1.640;2023-05-01T01:16:18;15.00;99.90
76120;DHT22;64852;48.092;-1.640;2023-05-01T01:18:50;15.00;99.90
76120;DHT22;64852;48.092;-1.640;2023-05-01T01:21:20;14.90;99.90
76120;DHT22;64852;48.092;-1.640;2023-05-01T01:26:38;14.80;99.90
76120;DHT22;64852;48.092;-1.640;2023-05-01T01:31:56;14.70;99.90
76120;DHT22;64852;48.092;-1.640;2023-05-01T01:34:25;14.70;99.90
76120;DHT22;64852;48.092;-1.640;2023-05-01T01:36:55;14.70;99.90
76120;DHT22;64852;48.092;-1.640;2023-05-01T01:39:42;14.70;99.90
76120;DHT22;64852;48.092;-1.640;2023-05-01T01:42:12;14.70;99.90
76120;DHT22;64852;48.092;-1.640;2023-05-01T01:45:14;14.80;99.90
76120;DHT22;64852;48.092;-1.640;2023-05-01T01:47:35;14.80;99.90
76120;DHT22;64852;48.092;-1.640;2023-05-01T01:50:02;14.70;99.90
76120;DHT22;64852;48.092;-1.640;2023-05-01T01:52:28;14.70;99.90
76120;DHT22;64852;48.092;-1.640;2023-05-01T01:54:55;14.80;99.90
76120;DHT22;64852;48.092;-1.640;2023-05-01T01:57:22;14.70;99.90
76120;DHT22;64852;48.092;-1.640;2023-05-01T01:59:49;14.60;99.90
76120;DHT22;64852;48.092;-1.640;2023-05-01T02:02:16;14.70;99.90
76120;DHT22;64852;48.092;-1.640;2023-05-01T02:04:42;14.70;99.90
76120;DHT22;64852;48.092;-1.640;2023-05-01T02:07:08;14.80;99.90
76120;DHT22;64852;48.092;-1.640;2023-05-01T02:09:35;14.80;99.90
76120;DHT22;64852;48.092;-1.640;2023-05-01T02:12:02;14.70;99.90
76120;DHT22;64852;48.092;-1.640;2023-05-01T02:14:29;14.70;99.90
76120;DHT22;64852;48.092;-1.640;2023-05-01T02:16:56;14.70;99.90
76120;DHT22;64852;48.092;-1.640;2023-05-01T02:19:23;14.80;99.90
76120;DHT22;64852;48.092;-1.640;2023-05-01T02:21:49;14.70;99.90
76120;DHT22;64852;48.092;-1.640;2023-05-01T02:24:15;14.80;99.90
76120;DHT22;64852;48.092;-1.640;2023-05-01T02:26:42;14.80;99.90
76120;DHT22;64852;48.092;-1.640;2023-05-01T02:29:08;14.80;99.90
76120;DHT22;64852;48.092;-1.640;2023-05-01T02:31:34;14.80;99.90
76120;DHT22;64852;48.092;-1.640;2023-05-01T02:33:59;14.90;99.90
76120;DHT22;64852;48.092;-1.640;2023-05-01T02:36:25;14.90;99.90
76120;DHT22;64852;48.092;-1.640;2023-05-01T02:38:52;14.80;99.90
76120;DHT22;64852;48.092;-1.640;2023-05-01T02:41:18;14.80;99.90
76120;DHT22;64852;48.092;-1.640;2023-05-01T02:43:45;14.90;99.90
76120;DHT22;64852;48.092;-1.640;2023-05-01T02:46:12;15.20;99.90
76120;DHT22;64852;48.092;-1.640;2023-05-01T02:48:37;14.50;99.90
76120;DHT22;64852;48.092;-1.640;2023-05-01T02:51:04;14.80;99.90
76120;DHT22;64852;48.092;-1.640;2023-05-01T02:53:31;14.80;99.90
76120;DHT22;64852;48.092;-1.640;2023-05-01T02:55:57;14.80;99.90
76120;DHT22;64852;48.092;-1.640;2023-05-01T02:58:23;14.90;99.90
76120;DHT22;64852;48.092;-1.640;2023-05-01T03:00:49;14.90;99.90
76120;DHT22;64852;48.092;-1.640;2023-05-01T03:03:14;14.90;99.90
76120;DHT22;64852;48.092;-1.640;2023-05-01T03:05:40;14.90;99.90
76120;DHT22;64852;48.092;-1.640;2023-05-01T03:08:06;14.80;99.90
76120;DHT22;64852;48.092;-1.640;2023-05-01T03:10:32;14.90;99.90
76120;DHT22;64852;48.092;-1.640;2023-05-01T03:12:58;14.90;99.90
76120;DHT22;64852;48.092;-1.640;2023-05-01T03:15:23;14.80;99.90
76120;DHT22;64852;48.092;-1.640;2023-05-01T03:17:49;14.80;99.90
76120;DHT22;64852;48.092;-1.640;2023-05-01T03:20:14;14.70;99.90
76120;DHT22;64852;48.092;-1.640;2023-05-01T03:22:40;14.70;99.90
76120;DHT22;64852;48.092;-1.640;2023-05-01T03:25:05;14.70;99.90
76120;DHT22;64852;48.092;-1.640;2023-05-01T03:27:31;14.80;99.90
76120;DHT22;64852;48.092;-1.640;2023-05-01T03:29:57;14.70;99.90
76120;DHT22;64852;48.092;-1.640;2023-05-01T03:32:22;15.00;99.90
76120;DHT22;64852;48.092;-1.640;2023-05-01T03:34:48;14.80;99.90
76120;DHT22;64852;48.092;-1.640;2023-05-01T03:37:13;14.80;99.90
76120;DHT22;64852;48.092;-1.640;2023-05-01T03:39:39;14.80;99.90
76120;DHT22;64852;48.092;-1.640;2023-05-01T03:42:05;14.80;99.90
76120;DHT22;64852;48.092;-1.640;2023-05-01T03:44:30;14.80;99.90
76120;DHT22;64852;48.092;-1.640;2023-05-01T03:46:56;14.80;99.90
76120;DHT22;64852;48.092;-1.640;2023-05-01T03:49:22;14.80;99.90
76120;DHT22;64852;48.092;-1.640;2023-05-01T03:51:48;14.80;99.90
76120;DHT22;64852;48.092;-1.640;2023-05-01T03:54:13;14.80;99.90
76120;DHT22;64852;48.092;-1.640;2023-05-01T03:56:39;14.80;99.90
76120;DHT22;64852;48.092;-1.640;2023-05-01T03:59:04;14.80;99.90
76120;DHT22;64852;48.092;-1.640;2023-05-01T04:01:30;14.80;99.90
76120;DHT22;64852;48.092;-1.640;2023-05-01T04:03:58;14.80;99.90
76120;DHT22;64852;48.092;-1.640;2023-05-01T04:06:23;15.00;99.90
76120;DHT22;64852;48.092;-1.640;2023-05-01T04:08:49;14.70;99.90
76120;DHT22;64852;48.092;-1.640;2023-05-01T04:11:15;14.80;99.90
76120;DHT22;64852;48.092;-1.640;2023-05-01T04:13:40;14.70;99.90
76120;DHT22;64852;48.092;-1.640;2023-05-01T04:16:06;14.60;99.90
76120;DHT22;64852;48.092;-1.640;2023-05-01T04:18:31;14.50;99.90
76120;DHT22;64852;48.092;-1.640;2023-05-01T04:20:57;14.60;99.90
76120;DHT22;64852;48.092;-1.640;2023-05-01T04:23:22;14.40;99.90
76120;DHT22;64852;48.092;-1.640;2023-05-01T04:25:48;14.30;99.90
76120;DHT22;64852;48.092;-1.640;2023-05-01T04:28:13;14.40;99.90
76120;DHT22;64852;48.092;-1.640;2023-05-01T04:30:39;14.40;99.90
76120;DHT22;64852;48.092;-1.640;2023-05-01T04:33:04;14.30;99.90
76120;DHT22;64852;48.092;-1.640;2023-05-01T04:35:39;14.40;99.90
76120;DHT22;64852;48.092;-1.640;2023-05-01T04:38:04;14.50;99.90
76120;DHT22;64852;48.092;-1.640;2023-05-01T04:40:30;14.60;99.90
76120;DHT22;64852;48.092;-1.640;2023-05-01T04:42:56;14.50;99.90
76120;DHT22;64852;48.092;-1.640;2023-05-01T04:45:21;14.50;99.90
76120;DHT22;64852;48.092;-1.640;2023-05-01T04:47:47;14.60;99.90
76120;DHT22;64852;48.092;-1.640;2023-05-01T04:50:13;14.50;99.90
76120;DHT22;64852;48.092;-1.640;2023-05-01T04:52:38;14.50;99.90
76120;DHT22;64852;48.092;-1.640;2023-05-01T04:55:04;14.50;99.90
76120;DHT22;64852;48.092;-1.640;2023-05-01T04:57:30;14.50;99.90
76120;DHT22;64852;48.092;-1.640;2023-05-01T04:59:55;14.40;99.90
76120;DHT22;64852;48.092;-1.640;2023-05-01T05:02:21;14.50;99.90
76120;DHT22;64852;48.092;-1.640;2023-05-01T05:04:46;14.50;99.90
76120;DHT22;64852;48.092;-1.640;2023-05-01T05:07:11;14.50;99.90
76120;DHT22;64852;48.092;-1.640;2023-05-01T05:09:37;14.40;99.90
76120;DHT22;64852;48.092;-1.640;2023-05-01T05:12:03;14.40;99.90
76120;DHT22;64852;48.092;-1.640;2023-05-01T05:14:29;14.50;99.90
76120;DHT22;64852;48.092;-1.640;2023-05-01T05:16:54;14.50;99.90
76120;DHT22;64852;48.092;-1.640;2023-05-01T05:19:20;14.50;99.90
76120;DHT22;64852;48.092;-1.640;2023-05-01T05:21:46;14.40;99.90
76120;DHT22;64852;48.092;-1.640;2023-05-01T05:24:12;14.40;99.90
76120;DHT22;64852;48.092;-1.640;2023-05-01T05:26:37;14.30;99.90
76120;DHT22;64852;48.092;-1.640;2023-05-01T05:29:03;13.30;99.90
76120;DHT22;64852;48.092;-1.640;2023-05-01T05:31:28;14.30;99.90
76120;DHT22;64852;48.092;-1.640;2023-05-01T05:33:54;14.20;99.90
76120;DHT22;64852;48.092;-1.640;2023-05-01T05:36:19;14.30;99.90
76120;DHT22;64852;48.092;-1.640;2023-05-01T05:38:45;14.30;99.90
76120;DHT22;64852;48.092;-1.640;2023-05-01T05:41:11;14.30;99.90
76120;DHT22;64852;48.092;-1.640;2023-05-01T05:43:36;14.40;99.90
76120;DHT22;64852;48.092;-1.640;2023-05-01T05:46:02;14.40;99.90
76120;DHT22;64852;48.092;-1.640;2023-05-01T05:48:27;14.30;99.90
76120;DHT22;64852;48.092;-1.640;2023-05-01T05:50:53;14.30;99.90
76120;DHT22;64852;48.092;-1.640;2023-05-01T05:53:19;14.30;99.90
76120;DHT22;64852;48.092;-1.640;2023-05-01T05:55:47;14.30;99.90
76120;DHT22;64852;48.092;-1.640;2023-05-01T05:58:13;14.40;99.90
76120;DHT22;64852;48.092;-1.640;2023-05-01T06:00:47;14.40;99.90
76120;DHT22;64852;48.092;-1.640;2023-05-01T06:03:12;14.40;99.90
76120;DHT22;64852;48.092;-1.640;2023-05-01T06:05:38;14.40;99.90
76120;DHT22;64852;48.092;-1.640;2023-05-01T06:08:04;14.50;99.90
76120;DHT22;64852;48.092;-1.640;2023-05-01T06:10:29;14.50;99.90
76120;DHT22;64852;48.092;-1.640;2023-05-01T06:12:55;14.50;99.90
76120;DHT22;64852;48.092;-1.640;2023-05-01T06:15:20;14.50;99.90
76120;DHT22;64852;48.092;-1.640;2023-05-01T06:17:46;14.70;99.90
76120;DHT22;64852;48.092;-1.640;2023-05-01T06:20:12;14.50;99.90
76120;DHT22;64852;48.092;-1.640;2023-05-01T06:22:38;14.40;99.90
76120;DHT22;64852;48.092;-1.640;2023-05-01T06:25:04;14.50;99.90
76120;DHT22;64852;48.092;-1.640;2023-05-01T06:27:30;14.50;99.90
76120;DHT22;64852;48.092;-1.640;2023-05-01T06:29:56;14.40;99.90
76120;DHT22;64852;48.092;-1.640;2023-05-01T06:32:21;14.40;99.90
76120;DHT22;64852;48.092;-1.640;2023-05-01T06:34:47;14.40;99.90
76120;DHT22;64852;48.092;-1.640;2023-05-01T06:37:13;14.50;99.90
76120;DHT22;64852;48.092;-1.640;2023-05-01T06:39:38;14.60;99.90
76120;DHT22;64852;48.092;-1.640;2023-05-01T06:42:04;14.80;99.90
76120;DHT22;64852;48.092;-1.640;2023-05-01T06:44:29;14.70;99.90
76120;DHT22;64852;48.092;-1.640;2023-05-01T06:46:55;14.80;99.90
76120;DHT22;64852;48.092;-1.640;2023-05-01T06:49:21;14.80;99.90
76120;DHT22;64852;48.092;-1.640;2023-05-01T06:51:46;14.70;99.90
76120;DHT22;64852;48.092;-1.640;2023-05-01T06:54:12;14.70;99.90
76120;DHT22;64852;48.092;-1.640;2023-05-01T06:56:37;14.80;99.90
76120;DHT22;64852;48.092;-1.640;2023-05-01T06:59:04;14.80;99.90
76120;DHT22;64852;48.092;-1.640;2023-05-01T07:01:29;14.70;99.90
76120;DHT22;64852;48.092;-1.640;2023-05-01T07:03:55;14.60;99.90
76120;DHT22;64852;48.092;-1.640;2023-05-01T07:06:21;14.70;99.90
76120;DHT22;64852;48.092;-1.640;2023-05-01T07:08:46;14.70;99.90
76120;DHT22;64852;48.092;-1.640;2023-05-01T07:11:12;16.50;99.90
76120;DHT22;64852;48.092;-1.640;2023-05-01T07:13:38;14.70;99.90
76120;DHT22;64852;48.092;-1.640;2023-05-01T07:16:04;14.80;99.90
76120;DHT22;64852;48.092;-1.640;2023-05-01T07:18:29;14.80;99.90
76120;DHT22;64852;48.092;-1.640;2023-05-01T07:20:55;14.80;99.90
76120;DHT22;64852;48.092;-1.640;2023-05-01T07:23:20;14.70;99.90
76120;DHT22;64852;48.092;-1.640;2023-05-01T07:25:47;14.80;99.90
76120;DHT22;64852;48.092;-1.640;2023-05-01T07:28:13;14.90;99.90
76120;DHT22;64852;48.092;-1.640;2023-05-01T07:30:38;14.90;99.90
76120;DHT22;64852;48.092;-1.640;2023-05-01T07:33:04;15.10;99.90
76120;DHT22;64852;48.092;-1.640;2023-05-01T07:35:32;15.00;99.90
76120;DHT22;64852;48.092;-1.640;2023-05-01T07:37:57;15.10;99.90
76120;DHT22;64852;48.092;-1.640;2023-05-01T07:40:23;15.20;99.90
76120;DHT22;64852;48.092;-1.640;2023-05-01T07:42:48;15.20;99.90
76120;DHT22;64852;48.092;-1.640;2023-05-01T07:45:14;15.80;99.90
76120;DHT22;64852;48.092;-1.640;2023-05-01T07:47:40;15.20;99.90
76120;DHT22;64852;48.092;-1.640;2023-05-01T07:50:08;15.30;99.90
76120;DHT22;64852;48.092;-1.640;2023-05-01T07:52:34;15.30;99.90
76120;DHT22;64852;48.092;-1.640;2023-05-01T07:54:59;15.30;99.90
76120;DHT22;64852;48.092;-1.640;2023-05-01T07:57:25;15.30;99.90
76120;DHT22;64852;48.092;-1.640;2023-05-01T07:59:54;15.40;99.90
76120;DHT22;64852;48.092;-1.640;2023-05-01T08:02:20;15.30;99.90
76120;DHT22;64852;48.092;-1.640;2023-05-01T08:04:46;16.80;99.90
76120;DHT22;64852;48.092;-1.640;2023-05-01T08:07:15;15.40;99.90
76120;DHT22;64852;48.092;-1.640;2023-05-01T08:09:40;15.50;99.90
76120;DHT22;64852;48.092;-1.640;2023-05-01T08:12:06;15.60;99.90
76120;DHT22;64852;48.092;-1.640;2023-05-01T08:14:31;15.70;99.90
76120;DHT22;64852;48.092;-1.640;2023-05-01T08:16:57;15.80;99.90
76120;DHT22;64852;48.092;-1.640;2023-05-01T08:19:23;16.00;99.90
76120;DHT22;64852;48.092;-1.640;2023-05-01T08:21:48;16.00;99.90
76120;DHT22;64852;48.092;-1.640;2023-05-01T08:24:14;16.00;99.90
76120;DHT22;64852;48.092;-1.640;2023-05-01T08:26:39;15.90;99.90
76120;DHT22;64852;48.092;-1.640;2023-05-01T08:29:05;15.80;99.90
76120;DHT22;64852;48.092;-1.640;2023-05-01T08:31:30;15.70;99.90
76120;DHT22;64852;48.092;-1.640;2023-05-01T08:33:56;15.70;99.90
76120;DHT22;64852;48.092;-1.640;2023-05-01T08:36:21;15.60;99.90
76120;DHT22;64852;48.092;-1.640;2023-05-01T08:38:47;15.70;99.90
76120;DHT22;64852;48.092;-1.640;2023-05-01T08:41:18;15.80;99.90
76120;DHT22;64852;48.092;-1.640;2023-05-01T08:43:44;15.80;99.90
76120;DHT22;64852;48.092;-1.640;2023-05-01T08:46:10;15.60;99.90
76120;DHT22;64852;48.092;-1.640;2023-05-01T08:48:37;15.40;99.90
76120;DHT22;64852;48.092;-1.640;2023-05-01T08:51:05;15.40;99.90
76120;DHT22;64852;48.092;-1.640;2023-05-01T08:53:30;15.40;99.90
76120;DHT22;64852;48.092;-1.640;2023-05-01T08:55:56;15.30;99.90
76120;DHT22;64852;48.092;-1.640;2023-05-01T08:58:23;15.30;99.90
76120;DHT22;64852;48.092;-1.640;2023-05-01T09:00:49;15.30;99.90
76120;DHT22;64852;48.092;-1.640;2023-05-01T09:03:14;15.30;99.90
76120;DHT22;64852;48.092;-1.640;2023-05-01T09:05:40;15.30;99.90
76120;DHT22;64852;48.092;-1.640;2023-05-01T09:08:06;15.30;99.90
76120;DHT22;64852;48.092;-1.640;2023-05-01T09:10:32;15.30;99.90
76120;DHT22;64852;48.092;-1.640;2023-05-01T09:13:00;15.10;99.90
76120;DHT22;64852;48.092;-1.640;2023-05-01T09:15:27;15.20;99.90
76120;DHT22;64852;48.092;-1.640;2023-05-01T09:17:53;15.30;99.90
76120;DHT22;64852;48.092;-1.640;2023-05-01T09:20:19;15.30;99.90
76120;DHT22;64852;48.092;-1.640;2023-05-01T09:22:45;15.60;99.90
76120;DHT22;64852;48.092;-1.640;2023-05-01T09:25:10;15.70;99.90
76120;DHT22;64852;48.092;-1.640;2023-05-01T09:27:39;15.80;99.90
76120;DHT22;64852;48.092;-1.640;2023-05-01T09:30:04;15.70;99.90
76120;DHT22;64852;48.092;-1.640;2023-05-01T09:32:31;15.90;99.90
76120;DHT22;64852;48.092;-1.640;2023-05-01T09:37:35;16.20;99.90
76120;DHT22;64852;48.092;-1.640;2023-05-01T09:40:08;16.40;99.90
76120;DHT22;64852;48.092;-1.640;2023-05-01T09:42:35;16.50;99.90
76120;DHT22;64852;48.092;-1.640;2023-05-01T09:45:01;16.70;99.90
76120;DHT22;64852;48.092;-1.640;2023-05-01T09:47:28;16.80;99.90
76120;DHT22;64852;48.092;-1.640;2023-05-01T09:49:55;16.60;99.90
76120;DHT22;64852;48.092;-1.640;2023-05-01T09:52:22;16.90;99.90
76120;DHT22;64852;48.092;-1.640;2023-05-01T09:54:47;17.30;99.90
76120;DHT22;64852;48.092;-1.640;2023-05-01T09:57:13;16.90;99.90
76120;DHT22;64852;48.092;-1.640;2023-05-01T09:59:38;16.90;99.90
76120;DHT22;64852;48.092;-1.640;2023-05-01T10:02:04;16.90;99.90
76120;DHT22;64852;48.092;-1.640;2023-05-01T10:04:30;17.00;99.90
76120;DHT22;64852;48.092;-1.640;2023-05-01T10:06:56;17.00;99.90
76120;DHT22;64852;48.092;-1.640;2023-05-01T10:09:28;17.20;99.90
76120;DHT22;64852;48.092;-1.640;2023-05-01T10:11:54;17.20;99.90
76120;DHT22;64852;48.092;-1.640;2023-05-01T10:14:21;17.30;99.90
76120;DHT22;64852;48.092;-1.640;2023-05-01T10:16:48;17.80;99.90
76120;DHT22;64852;48.092;-1.640;2023-05-01T10:19:15;17.40;99.90
76120;DHT22;64852;48.092;-1.640;2023-05-01T10:21:41;17.30;99.90
76120;DHT22;64852;48.092;-1.640;2023-05-01T10:24:06;17.40;99.90
76120;DHT22;64852;48.092;-1.640;2023-05-01T10:26:34;17.50;99.90
76120;DHT22;64852;48.092;-1.640;2023-05-01T10:29:00;17.90;99.90
76120;DHT22;64852;48.092;-1.640;2023-05-01T10:31:26;18.10;99.90
76120;DHT22;64852;48.092;-1.640;2023-05-01T10:33:53;18.40;99.90
76120;DHT22;64852;48.092;-1.640;2023-05-01T10:36:26;18.50;99.90
76120;DHT22;64852;48.092;-1.640;2023-05-01T10:38:56;18.50;99.90
76120;DHT22;64852;48.092;-1.640;2023-05-01T10:44:18;18.10;91.70
76120;DHT22;64852;48.092;-1.640;2023-05-01T10:46:44;17.90;96.30
76120;DHT22;64852;48.092;-1.640;2023-05-01T10:49:10;17.90;99.90
76120;DHT22;64852;48.092;-1.640;2023-05-01T10:51:37;18.10;99.90
76120;DHT22;64852;48.092;-1.640;2023-05-01T10:54:31;17.40;99.90
76120;DHT22;64852;48.092;-1.640;2023-05-01T10:56:58;17.60;97.90
76120;DHT22;64852;48.092;-1.640;2023-05-01T10:59:24;17.60;97.40
76120;DHT22;64852;48.092;-1.640;2023-05-01T11:01:50;17.60;99.90
76120;DHT22;64852;48.092;-1.640;2023-05-01T11:06:41;18.00;99.90
76120;DHT22;64852;48.092;-1.640;2023-05-01T11:12:02;18.40;99.90
76120;DHT22;64852;48.092;-1.640;2023-05-01T11:14:59;18.20;98.90
76120;DHT22;64852;48.092;-1.640;2023-05-01T11:17:16;18.20;99.90
76120;DHT22;64852;48.092;-1.640;2023-05-01T11:19:59;18.20;99.90
76120;DHT22;64852;48.092;-1.640;2023-05-01T11:22:24;18.30;97.80
76120;DHT22;64852;48.092;-1.640;2023-05-01T11:24:50;18.40;99.90
76120;DHT22;64852;48.092;-1.640;2023-05-01T11:27:16;18.60;98.80
76120;DHT22;64852;48.092;-1.640;2023-05-01T11:29:43;18.70;94.10
76120;DHT22;64852;48.092;-1.640;2023-05-01T11:32:13;18.70;90.40
76120;DHT22;64852;48.092;-1.640;2023-05-01T11:34:39;20.00;97.30
76120;DHT22;64852;48.092;-1.640;2023-05-01T11:37:05;19.00;96.50
76120;DHT22;64852;48.092;-1.640;2023-05-01T11:39:30;19.20;92.50
76120;DHT22;64852;48.092;-1.640;2023-05-01T11:42:06;19.40;90.90
76120;DHT22;64852;48.092;-1.640;2023-05-01T11:44:31;18.90;76.60
76120;DHT22;64852;48.092;-1.640;2023-05-01T11:46:57;18.80;80.20
76120;DHT22;64852;48.092;-1.640;2023-05-01T11:49:26;18.70;84.10
76120;DHT22;64852;48.092;-1.640;2023-05-01T11:51:56;18.70;82.40
76120;DHT22;64852;48.092;-1.640;2023-05-01T11:54:22;18.90;82.60
76120;DHT22;64852;48.092;-1.640;2023-05-01T11:56:48;18.90;74.10
76120;DHT22;64852;48.092;-1.640;2023-05-01T11:59:21;19.10;85.50
76120;DHT22;64852;48.092;-1.640;2023-05-01T12:01:47;19.50;82.90
76120;DHT22;64852;48.092;-1.640;2023-05-01T12:04:21;19.60;75.70
76120;DHT22;64852;48.092;-1.640;2023-05-01T12:06:47;19.50;75.50
76120;DHT22;64852;48.092;-1.640;2023-05-01T12:09:22;19.50;77.10
76120;DHT22;64852;48.092;-1.640;2023-05-01T12:11:49;19.80;91.60
76120;DHT22;64852;48.092;-1.640;2023-05-01T12:14:15;20.40;87.80
76120;DHT22;64852;48.092;-1.640;2023-05-01T12:16:42;21.10;79.60
76120;DHT22;64852;48.092;-1.640;2023-05-01T12:19:07;21.40;68.20
76120;DHT22;64852;48.092;-1.640;2023-05-01T12:21:33;21.20;69.10
76120;DHT22;64852;48.092;-1.640;2023-05-01T12:24:10;21.10;64.10
76120;DHT22;64852;48.092;-1.640;2023-05-01T12:26:36;21.10;69.70
76120;DHT22;64852;48.092;-1.640;2023-05-01T12:29:03;21.90;77.50
76120;DHT22;64852;48.092;-1.640;2023-05-01T12:31:29;22.80;82.60
76120;DHT22;64852;48.092;-1.640;2023-05-01T12:33:55;23.10;61.60
76120;DHT22;64852;48.092;-1.640;2023-05-01T12:36:21;22.80;59.60
76120;DHT22;64852;48.092;-1.640;2023-05-01T12:41:20;22.40;58.70
76120;DHT22;64852;48.092;-1.640;2023-05-01T12:43:46;22.50;58.50
76120;DHT22;64852;48.092;-1.640;2023-05-01T12:46:12;22.60;59.00
76120;DHT22;64852;48.092;-1.640;2023-05-01T12:48:38;22.90;61.80
76120;DHT22;64852;48.092;-1.640;2023-05-01T12:51:04;23.50;61.00
76120;DHT22;64852;48.092;-1.640;2023-05-01T12:53:30;24.40;61.50
76120;DHT22;64852;48.092;-1.640;2023-05-01T12:55:56;25.10;56.30
76120;DHT22;64852;48.092;-1.640;2023-05-01T12:58:23;25.60;55.60
76120;DHT22;64852;48.092;-1.640;2023-05-01T13:03:14;25.60;52.60
76120;DHT22;64852;48.092;-1.640;2023-05-01T13:05:49;26.00;57.90
76120;DHT22;64852;48.092;-1.640;2023-05-01T13:08:14;26.40;50.80
76120;DHT22;64852;48.092;-1.640;2023-05-01T13:10:46;26.70;50.70
76120;DHT22;64852;48.092;-1.640;2023-05-01T13:13:12;26.90;51.30
76120;DHT22;64852;48.092;-1.640;2023-05-01T13:15:37;27.60;52.40
76120;DHT22;64852;48.092;-1.640;2023-05-01T13:18:03;27.50;46.90
76120;DHT22;64852;48.092;-1.640;2023-05-01T13:20:29;27.70;48.40
76120;DHT22;64852;48.092;-1.640;2023-05-01T13:22:55;27.20;45.30
76120;DHT22;64852;48.092;-1.640;2023-05-01T13:25:20;26.30;44.70
76120;DHT22;64852;48.092;-1.640;2023-05-01T13:27:50;25.50;44.30
76120;DHT22;64852;48.092;-1.640;2023-05-01T13:30:20;24.70;45.80
76120;DHT22;64852;48.092;-1.640;2023-05-01T13:32:54;24.20;47.20
76120;DHT22;64852;48.092;-1.640;2023-05-01T13:35:23;24.60;49.90
76120;DHT22;64852;48.092;-1.640;2023-05-01T13:37:49;25.50;52.60
76120;DHT22;64852;48.092;-1.640;2023-05-01T13:40:15;26.70;51.30
76120;DHT22;64852;48.092;-1.640;2023-05-01T13:42:42;26.90;48.10
76120;DHT22;64852;48.092;-1.640;2023-05-01T13:45:08;26.40;46.10
76120;DHT22;64852;48.092;-1.640;2023-05-01T13:47:33;25.80;44.90
76120;DHT22;64852;48.092;-1.640;2023-05-01T13:50:00;25.10;45.20
76120;DHT22;64852;48.092;-1.640;2023-05-01T13:52:26;25.10;47.10
76120;DHT22;64852;48.092;-1.640;2023-05-01T13:54:52;25.50;46.80
76120;DHT22;64852;48.092;-1.640;2023-05-01T13:57:19;26.00;45.90
76120;DHT22;64852;48.092;-1.640;2023-05-01T13:59:45;25.30;45.70
76120;DHT22;64852;48.092;-1.640;2023-05-01T14:02:45;25.10;48.30
76120;DHT22;64852;48.092;-1.640;2023-05-01T14:05:06;25.90;49.60
76120;DHT22;64852;48.092;-1.640;2023-05-01T14:07:33;27.20;50.90
76120;DHT22;64852;48.092;-1.640;2023-05-01T14:10:04;28.10;46.70
76120;DHT22;64852;48.092;-1.640;2023-05-01T14:12:32;27.40;42.40
76120;DHT22;64852;48.092;-1.640;2023-05-01T14:14:58;26.70;45.00
76120;DHT22;64852;48.092;-1.640;2023-05-01T14:17:34;26.30;44.50
76120;DHT22;64852;48.092;-1.640;2023-05-01T14:20:00;25.70;44.20
76120;DHT22;64852;48.092;-1.640;2023-05-01T14:22:34;24.80;43.90
76120;DHT22;64852;48.092;-1.640;2023-05-01T14:25:01;23.00;44.60
76120;DHT22;64852;48.092;-1.640;2023-05-01T14:27:29;24.70;46.20
76120;DHT22;64852;48.092;-1.640;2023-05-01T14:29:55;24.90;47.30
76120;DHT22;64852;48.092;-1.640;2023-05-01T14:32:21;24.90;46.90
76120;DHT22;64852;48.092;-1.640;2023-05-01T14:34:47;25.00;46.70
76120;DHT22;64852;48.092;-1.640;2023-05-01T14:37:12;25.00;46.30
76120;DHT22;64852;48.092;-1.640;2023-05-01T14:39:39;25.10;46.40
76120;DHT22;64852;48.092;-1.640;2023-05-01T14:42:05;25.30;47.30
76120;DHT22;64852;48.092;-1.640;2023-05-01T14:44:30;25.60;49.20
76120;DHT22;64852;48.092;-1.640;2023-05-01T14:46:56;26.00;47.60
76120;DHT22;64852;48.092;-1.640;2023-05-01T14:49:23;26.30;46.30
76120;DHT22;64852;48.092;-1.640;2023-05-01T14:51:49;26.70;47.00
76120;DHT22;64852;48.092;-1.640;2023-05-01T14:54:16;27.40;48.20
76120;DHT22;64852;48.092;-1.640;2023-05-01T14:56:42;27.90;44.70
76120;DHT22;64852;48.092;-1.640;2023-05-01T14:59:08;28.50;48.40
76120;DHT22;64852;48.092;-1.640;2023-05-01T15:01:33;29.40;43.30
76120;DHT22;64852;48.092;-1.640;2023-05-01T15:03:59;29.80;44.20
76120;DHT22;64852;48.092;-1.640;2023-05-01T15:06:24;30.30;40.90
76120;DHT22;64852;48.092;-1.640;2023-05-01T15:08:50;30.40;42.40
76120;DHT22;64852;48.092;-1.640;2023-05-01T15:11:16;30.80;42.90
76120;DHT22;64852;48.092;-1.640;2023-05-01T15:13:45;31.50;41.40
76120;DHT22;64852;48.092;-1.640;2023-05-01T15:16:13;31.20;38.90
76120;DHT22;64852;48.092;-1.640;2023-05-01T15:18:39;30.60;38.70
76120;DHT22;64852;48.092;-1.640;2023-05-01T15:21:04;30.00;40.30
76120;DHT22;64852;48.092;-1.640;2023-05-01T15:23:30;30.30;39.60
76120;DHT22;64852;48.092;-1.640;2023-05-01T15:25:56;29.10;40.00
76120;DHT22;64852;48.092;-1.640;2023-05-01T15:28:22;30.80;39.50
76120;DHT22;64852;48.092;-1.640;2023-05-01T15:30:50;31.20;39.80
76120;DHT22;64852;48.092;-1.640;2023-05-01T15:33:16;31.60;38.80
76120;DHT22;64852;48.092;-1.640;2023-05-01T15:35:41;31.30;38.10
76120;DHT22;64852;48.092;-1.640;2023-05-01T15:38:07;30.70;34.50